createdAt,value
2023-11-18T00:01:26.767Z,6.03
2023-11-18T00:04:35.506Z,3.77
2023-11-18T00:07:44.432Z,5.17
2023-11-18T00:10:56.281Z,4.13
2023-11-18T00:14:06.903Z,3.80
2023-11-18T00:17:15.337Z,3.57
2023-11-18T00:20:25.258Z,4.20
2023-11-18T00:23:33.820Z,3.83
2023-11-18T00:26:42.446Z,5.13
2023-11-18T00:29:54.447Z,4.90
2023-11-18T00:33:03.374Z,6.00
2023-11-18T00:36:12.602Z,4.37
2023-11-18T00:39:21.865Z,4.93
2023-11-18T00:42:30.445Z,4.13
2023-11-18T00:45:42.511Z,4.20
2023-11-18T00:48:51.327Z,4.07
2023-11-18T00:51:59.635Z,4.10
2023-11-18T00:55:10.275Z,4.93
2023-11-18T00:58:19.757Z,4.03
2023-11-18T01:01:30.694Z,5.27
2023-11-18T01:04:39.344Z,4.03
2023-11-18T01:07:48.630Z,3.47
2023-11-18T01:10:57.238Z,3.47
2023-11-18T01:14:05.856Z,3.37
2023-11-18T01:17:16.656Z,3.40
2023-11-18T01:20:25.022Z,3.73
2023-11-18T01:23:34.158Z,2.70
2023-11-18T01:26:43.064Z,2.53
2023-11-18T01:29:51.895Z,2.60
2023-11-18T01:33:02.466Z,2.77
2023-11-18T01:36:13.306Z,2.10
2023-11-18T01:39:23.350Z,1.77
2023-11-18T01:42:32.602Z,2.70
2023-11-18T01:45:42.154Z,2.07
2023-11-18T01:48:52.964Z,1.60
2023-11-18T01:52:09.170Z,1.93
2023-11-18T01:55:18.799Z,1.77
2023-11-18T01:58:29.735Z,1.60
2023-11-18T02:01:40.706Z,2.10
2023-11-18T02:04:51.690Z,0.90
2023-11-18T02:08:01.185Z,1.37
2023-11-18T02:11:20.096Z,1.50
2023-11-18T02:14:32.884Z,1.43
2023-11-18T02:17:44.738Z,1.33
2023-11-18T02:20:58.458Z,1.10
2023-11-18T02:24:08.411Z,1.30
2023-11-18T02:27:21.869Z,1.20
2023-11-18T02:30:32.129Z,2.10
2023-11-18T02:33:54.590Z,0.90
2023-11-18T02:37:08.856Z,1.33
2023-11-18T02:40:22.468Z,1.70
2023-11-18T02:43:32.205Z,1.20
2023-11-18T02:46:44.815Z,1.40
2023-11-18T02:50:07.397Z,1.03
2023-11-18T02:53:15.902Z,1.17
2023-11-18T02:56:24.110Z,0.97
2023-11-18T02:59:34.610Z,1.00
2023-11-18T03:02:44.480Z,1.13
2023-11-18T03:05:53.005Z,1.30
2023-11-18T03:09:01.559Z,1.43
2023-11-18T03:12:11.058Z,1.33
2023-11-18T03:15:21.327Z,1.30
2023-11-18T03:18:30.724Z,1.20
2023-11-18T03:21:40.061Z,1.40
2023-11-18T03:24:48.638Z,1.20
2023-11-18T03:27:57.071Z,1.40
2023-11-18T03:31:11.292Z,1.50
2023-11-18T03:34:21.746Z,1.17
2023-11-18T03:37:30.575Z,1.40
2023-11-18T03:40:39.000Z,1.07
2023-11-18T03:43:49.148Z,1.37
2023-11-18T03:47:00.042Z,1.60
2023-11-18T03:50:10.610Z,1.43
2023-11-18T03:53:19.264Z,1.40
2023-11-18T03:56:28.188Z,1.60
2023-11-18T03:59:36.563Z,1.70
2023-11-18T04:02:47.129Z,1.47
2023-11-18T04:05:55.664Z,1.30
2023-11-18T04:09:07.008Z,1.43
2023-11-18T04:12:17.307Z,1.27
2023-11-18T04:15:28.184Z,1.47
2023-11-18T04:18:37.859Z,1.37
2023-11-18T04:21:49.458Z,1.70
2023-11-18T04:24:57.712Z,2.00
2023-11-18T04:28:06.249Z,1.83
2023-11-18T04:31:15.571Z,1.60
2023-11-18T04:34:27.644Z,2.17
2023-11-18T04:37:39.644Z,1.70
2023-11-18T04:40:52.165Z,2.57
2023-11-18T04:44:01.162Z,1.77
2023-11-18T04:47:09.823Z,1.57
2023-11-18T04:50:19.960Z,1.87
2023-11-18T04:53:28.386Z,2.37
2023-11-18T04:56:37.319Z,1.63
2023-11-18T04:59:45.718Z,2.00
2023-11-18T05:02:54.140Z,2.90
2023-11-18T05:06:05.592Z,1.87
2023-11-18T05:09:13.917Z,1.70
2023-11-18T05:12:22.523Z,1.90
2023-11-18T05:15:32.305Z,2.50
2023-11-18T05:18:41.032Z,1.77
2023-11-18T05:21:51.253Z,2.07
2023-11-18T05:25:00.426Z,1.70
2023-11-18T05:28:09.646Z,1.93
2023-11-18T05:31:18.758Z,2.27
2023-11-18T05:34:27.881Z,3.17
2023-11-18T05:37:39.284Z,2.03
2023-11-18T05:40:56.918Z,1.90
2023-11-18T05:44:07.171Z,2.23
2023-11-18T05:47:15.463Z,2.90
2023-11-18T05:50:25.719Z,2.27
2023-11-18T05:53:35.488Z,2.53
2023-11-18T05:56:44.423Z,2.40
2023-11-18T05:59:52.571Z,2.30
2023-11-18T06:03:02.131Z,3.53
2023-11-18T06:06:12.614Z,4.13
2023-11-18T06:09:26.404Z,3.00
2023-11-18T06:12:37.012Z,2.63
2023-11-18T06:15:46.200Z,1.97
2023-11-18T06:18:56.520Z,4.17
2023-11-18T06:22:07.019Z,2.53
2023-11-18T06:25:17.433Z,4.53
2023-11-18T06:28:27.313Z,3.13
2023-11-18T06:31:35.909Z,3.93
2023-11-18T06:34:44.398Z,4.17
2023-11-18T06:37:53.677Z,2.60
2023-11-18T06:41:07.305Z,1.60
2023-11-18T06:44:19.232Z,2.77
2023-11-18T06:47:28.150Z,2.57
2023-11-18T06:50:36.531Z,9.90
2023-11-18T06:53:45.729Z,5.23
2023-11-18T06:56:55.309Z,4.73
2023-11-18T07:00:09.163Z,4.67
2023-11-18T07:03:17.612Z,3.67
2023-11-18T07:06:28.135Z,4.33
2023-11-18T07:09:37.500Z,2.53
2023-11-18T07:12:47.167Z,2.07
2023-11-18T07:15:57.552Z,2.40
2023-11-18T07:19:05.904Z,2.50
2023-11-18T07:22:14.282Z,1.90
2023-11-18T07:25:23.033Z,2.53
2023-11-18T07:28:33.187Z,2.23
2023-11-18T07:31:41.584Z,2.17
2023-11-18T07:34:50.052Z,2.30
2023-11-18T07:37:59.726Z,2.80
2023-11-18T07:41:09.814Z,2.73
2023-11-18T07:44:19.659Z,4.40
2023-11-18T07:47:29.126Z,2.70
2023-11-18T07:50:38.089Z,2.70
2023-11-18T07:53:46.792Z,3.10
2023-11-18T07:56:55.698Z,2.63
2023-11-18T08:00:10.434Z,3.40
2023-11-18T08:03:25.070Z,2.90
2023-11-18T08:06:33.874Z,2.40
2023-11-18T08:09:44.375Z,2.50
2023-11-18T08:12:55.333Z,3.00
2023-11-18T08:16:05.934Z,4.60
2023-11-18T08:19:14.229Z,4.13
2023-11-18T08:22:24.131Z,2.93
2023-11-18T08:25:34.911Z,3.07
2023-11-18T08:28:43.705Z,2.63
2023-11-18T08:31:53.341Z,2.00
2023-11-18T08:35:01.629Z,2.20
2023-11-18T08:38:13.510Z,2.83
2023-11-18T08:41:23.458Z,3.20
2023-11-18T08:44:33.630Z,2.57
2023-11-18T08:47:47.105Z,2.33
2023-11-18T08:50:55.301Z,2.20
2023-11-18T08:54:18.208Z,2.20
2023-11-18T08:57:28.724Z,1.80
2023-11-18T09:00:51.411Z,1.50
2023-11-18T09:04:02.969Z,1.97
2023-11-18T09:07:12.164Z,1.43
2023-11-18T09:10:22.129Z,1.60
2023-11-18T09:13:31.123Z,1.40
2023-11-18T09:16:42.932Z,3.33
2023-11-18T09:19:54.321Z,1.40
2023-11-18T09:23:03.009Z,1.53
2023-11-18T09:26:11.780Z,1.23
2023-11-18T09:29:22.964Z,2.17
2023-11-18T09:32:35.385Z,1.60
2023-11-18T09:35:45.008Z,1.90
2023-11-18T09:38:54.738Z,1.43
2023-11-18T09:42:03.960Z,1.57
2023-11-18T09:45:15.082Z,1.37
2023-11-18T09:48:26.522Z,1.40
2023-11-18T09:51:41.149Z,1.37
2023-11-18T09:55:04.012Z,1.33
2023-11-18T09:58:25.162Z,1.23
2023-11-18T10:01:41.017Z,1.70
2023-11-18T10:04:51.228Z,1.27
2023-11-18T10:08:02.938Z,0.87
2023-11-18T10:11:15.028Z,0.60
2023-11-18T10:14:25.209Z,0.97
2023-11-18T10:17:33.863Z,0.77
2023-11-18T10:20:52.185Z,0.80
2023-11-18T10:24:11.742Z,1.13
2023-11-18T10:27:20.628Z,0.40
2023-11-18T10:30:28.967Z,0.40
2023-11-18T10:33:39.295Z,0.87
2023-11-18T10:37:03.472Z,0.53
2023-11-18T10:40:16.933Z,0.43
2023-11-18T10:43:26.605Z,0.60
2023-11-18T10:46:36.334Z,0.40
2023-11-18T10:49:45.049Z,0.50
2023-11-18T10:52:55.363Z,0.60
2023-11-18T10:56:07.547Z,0.87
2023-11-18T10:59:17.522Z,0.53
2023-11-18T11:02:26.021Z,0.50
2023-11-18T11:05:39.522Z,0.67
2023-11-18T11:08:49.331Z,0.60
2023-11-18T11:12:05.995Z,0.90
2023-11-18T11:15:23.726Z,1.50
2023-11-18T11:18:40.206Z,2.00
2023-11-18T11:22:06.929Z,0.50
2023-11-18T11:25:24.552Z,0.50
2023-11-18T11:28:45.192Z,1.80
2023-11-18T11:32:14.841Z,1.80
2023-11-18T11:35:32.279Z,0.40
2023-11-18T11:38:41.126Z,0.43
2023-11-18T11:41:55.722Z,0.37
2023-11-18T11:45:10.074Z,0.77
2023-11-18T11:48:27.651Z,2.10
2023-11-18T11:51:49.903Z,0.40
2023-11-18T11:55:13.864Z,1.07
2023-11-18T11:58:30.389Z,0.47
2023-11-18T12:01:41.468Z,3.20
2023-11-18T12:04:55.132Z,1.53
2023-11-18T12:08:03.742Z,0.50
2023-11-18T12:11:13.890Z,0.73
2023-11-18T12:14:39.340Z,1.50
2023-11-18T12:18:18.754Z,1.33
2023-11-18T12:21:56.896Z,0.40
2023-11-18T12:25:34.674Z,0.20
2023-11-18T12:28:47.174Z,0.60
2023-11-18T12:31:56.701Z,0.40
2023-11-18T12:35:17.982Z,4.10
2023-11-18T12:38:59.034Z,0.37
2023-11-18T12:42:13.081Z,0.73
2023-11-18T12:45:46.778Z,0.30
2023-11-18T12:49:01.063Z,0.33
2023-11-18T12:52:15.823Z,1.30
2023-11-18T12:55:24.382Z,0.50
2023-11-18T12:58:34.961Z,0.70
2023-11-18T13:01:44.249Z,0.40
2023-11-18T13:04:54.332Z,0.60
2023-11-18T13:08:04.649Z,0.70
2023-11-18T13:11:17.289Z,0.70
2023-11-18T13:14:28.476Z,0.40
2023-11-18T13:17:37.519Z,0.50
2023-11-18T13:20:58.541Z,2.10
2023-11-18T13:24:11.627Z,0.93
2023-11-18T13:27:22.101Z,2.60
2023-11-18T13:30:30.786Z,1.40
2023-11-18T13:33:41.251Z,0.60
2023-11-18T13:36:50.150Z,0.60
2023-11-18T13:40:01.728Z,3.10
2023-11-18T13:43:10.186Z,0.73
2023-11-18T13:46:20.608Z,0.83
2023-11-18T13:49:31.241Z,2.80
2023-11-18T13:52:39.937Z,3.17
2023-11-18T13:55:50.829Z,1.90
2023-11-18T13:59:00.714Z,0.67
2023-11-18T14:02:09.930Z,0.37
2023-11-18T14:05:19.106Z,0.50
2023-11-18T14:08:27.564Z,0.50
2023-11-18T14:11:37.790Z,1.03
2023-11-18T14:14:46.536Z,2.20
2023-11-18T14:17:55.417Z,1.17
2023-11-18T14:21:03.933Z,1.20
2023-11-18T14:24:13.311Z,0.90
2023-11-18T14:27:23.235Z,0.60
2023-11-18T14:30:31.729Z,0.57
2023-11-18T14:33:40.219Z,2.27
2023-11-18T14:36:48.779Z,0.87
2023-11-18T14:39:57.220Z,2.23
2023-11-18T14:43:09.127Z,11.10
2023-11-18T14:46:17.463Z,18.60
2023-11-18T14:49:25.742Z,15.73
2023-11-18T14:52:34.208Z,7.03
2023-11-18T14:55:43.250Z,5.37
2023-11-18T14:58:53.268Z,2.87
2023-11-18T15:02:01.844Z,3.00
2023-11-18T15:05:11.228Z,4.97
2023-11-18T15:08:19.903Z,4.97
2023-11-18T15:11:28.308Z,4.67
2023-11-18T15:14:40.255Z,6.90
2023-11-18T15:17:51.104Z,8.20
2023-11-18T15:20:59.960Z,6.67
2023-11-18T15:24:09.944Z,5.60
2023-11-18T15:27:18.506Z,3.50
2023-11-18T15:30:28.912Z,2.60
2023-11-18T15:33:38.554Z,3.70
2023-11-18T15:36:48.309Z,1.83
2023-11-18T15:39:56.920Z,1.53
2023-11-18T15:43:07.005Z,0.63
2023-11-18T15:46:16.634Z,1.23
2023-11-18T15:49:26.049Z,1.07
2023-11-18T15:52:36.207Z,2.17
2023-11-18T15:55:48.547Z,1.30
2023-11-18T15:58:57.525Z,3.07
2023-11-18T16:02:07.353Z,1.10
2023-11-18T16:05:17.021Z,0.90
2023-11-18T16:08:25.725Z,1.20
2023-11-18T16:11:34.036Z,1.20
2023-11-18T16:14:42.953Z,1.30
2023-11-18T16:17:54.351Z,3.50
2023-11-18T16:21:04.646Z,2.20
2023-11-18T16:24:12.891Z,4.83
2023-11-18T16:27:21.146Z,4.07
2023-11-18T16:30:31.157Z,6.33
2023-11-18T16:33:44.444Z,10.20
2023-11-18T16:36:57.557Z,13.43
2023-11-18T16:40:07.148Z,3.43
2023-11-18T16:43:16.448Z,4.23
2023-11-18T16:46:25.165Z,2.33
2023-11-18T16:49:34.864Z,2.30
2023-11-18T16:52:43.354Z,2.63
2023-11-18T16:55:51.547Z,2.50
2023-11-18T16:59:00.668Z,4.10
2023-11-18T17:02:10.207Z,2.47
2023-11-18T17:05:21.105Z,2.60
2023-11-18T17:08:31.170Z,3.23
2023-11-18T17:11:39.765Z,3.97
2023-11-18T17:14:50.207Z,1.80
2023-11-18T17:18:02.871Z,2.63
2023-11-18T17:21:13.673Z,4.90
2023-11-18T17:24:21.935Z,1.87
2023-11-18T17:27:30.123Z,2.33
2023-11-18T17:30:38.503Z,13.77
2023-11-18T17:33:47.579Z,6.80
2023-11-18T17:36:58.259Z,2.87
2023-11-18T17:40:12.202Z,3.03
2023-11-18T17:43:20.896Z,3.87
2023-11-18T17:46:29.365Z,5.77
2023-11-18T17:49:37.704Z,3.23
2023-11-18T17:52:48.649Z,1.60
2023-11-18T17:55:56.941Z,2.20
2023-11-18T17:59:05.291Z,2.03
2023-11-18T18:02:13.834Z,4.30
2023-11-18T18:05:22.525Z,3.40
2023-11-18T18:08:35.409Z,3.17
2023-11-18T18:11:43.694Z,2.70
2023-11-18T18:14:52.822Z,3.73
2023-11-18T18:18:01.112Z,1.73
2023-11-18T18:21:09.586Z,1.50
2023-11-18T18:24:19.208Z,1.30
2023-11-18T18:27:27.582Z,2.30
2023-11-18T18:30:35.911Z,2.87
2023-11-18T18:33:44.180Z,1.33
2023-11-18T18:36:52.395Z,2.03
2023-11-18T18:40:02.322Z,5.93
2023-11-18T18:43:11.729Z,1.93
2023-11-18T18:46:20.058Z,1.33
2023-11-18T18:49:28.428Z,2.43
2023-11-18T18:52:36.812Z,1.20
2023-11-18T18:55:46.605Z,1.20
2023-11-18T18:58:54.812Z,1.30
2023-11-18T19:02:03.047Z,0.93
2023-11-18T19:05:14.304Z,1.43
2023-11-18T19:08:24.177Z,1.17
2023-11-18T19:11:35.617Z,3.80
2023-11-18T19:14:44.031Z,3.77
2023-11-18T19:17:53.143Z,1.40
2023-11-18T19:21:01.375Z,1.47
2023-11-18T19:24:17.450Z,2.07
2023-11-18T19:27:27.082Z,4.93
2023-11-18T19:30:35.425Z,4.40
2023-11-18T19:33:44.758Z,2.20
2023-11-18T19:36:52.989Z,1.87
2023-11-18T19:40:01.321Z,1.43
2023-11-18T19:43:10.930Z,0.80
2023-11-18T19:46:19.249Z,2.10
2023-11-18T19:49:32.549Z,1.60
2023-11-18T19:52:41.105Z,0.90
2023-11-18T19:55:49.510Z,1.37
2023-11-18T19:58:59.127Z,0.40
2023-11-18T20:02:10.567Z,1.30
2023-11-18T20:05:19.025Z,1.40
2023-11-18T20:08:27.218Z,0.60
2023-11-18T20:11:36.510Z,0.60
2023-11-18T20:14:46.221Z,1.70
2023-11-18T20:17:54.551Z,1.47
2023-11-18T20:21:02.879Z,1.87
2023-11-18T20:24:11.577Z,1.50
2023-11-18T20:27:20.547Z,3.60
2023-11-18T20:30:31.272Z,0.70
2023-11-18T20:33:43.146Z,0.50
2023-11-18T20:36:51.904Z,0.80
2023-11-18T20:40:00.268Z,0.70
2023-11-18T20:43:08.943Z,1.97
2023-11-18T20:46:18.671Z,0.60
2023-11-18T20:49:28.050Z,0.80
2023-11-18T20:52:37.485Z,2.53
2023-11-18T20:55:46.493Z,0.40
2023-11-18T20:58:54.750Z,0.30
2023-11-18T21:02:05.096Z,0.50
2023-11-18T21:05:13.944Z,17.10
2023-11-18T21:08:22.466Z,2.50
2023-11-18T21:11:31.608Z,0.40
2023-11-18T21:14:40.016Z,0.40
2023-11-18T21:17:51.390Z,0.30
2023-11-18T21:20:59.804Z,0.20
2023-11-18T21:24:09.014Z,3.43
2023-11-18T21:27:18.173Z,1.00
2023-11-18T21:30:28.764Z,0.30
2023-11-18T21:33:38.766Z,0.70
2023-11-18T21:36:47.780Z,0.50
2023-11-18T21:39:56.019Z,0.40
2023-11-18T21:43:04.247Z,0.50
2023-11-18T21:46:13.027Z,5.00
2023-11-18T21:49:22.622Z,0.57
2023-11-18T21:52:30.959Z,2.23
2023-11-18T21:55:39.387Z,1.33
2023-11-18T21:58:47.929Z,0.87
2023-11-18T22:01:56.764Z,1.57
2023-11-18T22:05:08.299Z,0.50
2023-11-18T22:08:21.105Z,1.47
2023-11-18T22:11:36.995Z,0.90
2023-11-18T22:14:45.941Z,0.50
2023-11-18T22:17:54.417Z,0.40
2023-11-18T22:21:04.712Z,0.30
2023-11-18T22:24:13.961Z,0.40
2023-11-18T22:27:23.044Z,3.13
2023-11-18T22:30:31.788Z,0.30
2023-11-18T22:33:40.281Z,0.20
2023-11-18T22:36:50.448Z,0.27
2023-11-18T22:39:58.767Z,1.40
2023-11-18T22:43:08.340Z,0.60
2023-11-18T22:46:16.903Z,0.60
2023-11-18T22:49:25.266Z,0.50
2023-11-18T22:52:35.631Z,0.30
2023-11-18T22:55:45.646Z,0.53
2023-11-18T22:58:54.429Z,0.50
2023-11-18T23:02:04.383Z,0.40
2023-11-18T23:05:15.252Z,0.30
2023-11-18T23:08:25.036Z,0.80
2023-11-18T23:11:34.384Z,0.83
2023-11-18T23:14:42.690Z,0.30
2023-11-18T23:17:51.426Z,0.40
2023-11-18T23:21:00.446Z,0.50
2023-11-18T23:24:10.678Z,0.80
2023-11-18T23:27:18.953Z,0.60
2023-11-18T23:30:27.360Z,0.60
2023-11-18T23:33:36.792Z,1.30
2023-11-18T23:36:45.081Z,0.50
2023-11-18T23:39:55.585Z,0.37
2023-11-18T23:43:04.337Z,0.50
2023-11-18T23:46:15.262Z,0.50
2023-11-18T23:49:25.053Z,0.70
2023-11-18T23:52:33.834Z,0.30
2023-11-18T23:55:43.439Z,0.53
2023-11-18T23:58:51.702Z,0.23
